aviador You're here:

KMOB Decoded Metar

MOBILE in AL, USA
Report Time2018-05-21 20:35:00
UTC Time2018-05-21 20:41:18
Flight Rules vfr VFR
WindVRB at 04 kt
Visibility9999 m
Phenomena:N/A
Clouds:Broken CB 038 Hf
Broken 045 Hf
Broken 250 Hf
Expected CloudBase > 1,200 ft AGL from Temp-Dew spread
Ceiling3,800 ft
Temp24°C (ISA +9)
Dew Point21°C (83% RH)
QNH1016 hPa
Density Alt1,526 ft
Elevation207 ft
Report Wrong Elevation
Raw Report
KMOB 212035Z VRB04KT 10SM BKN038CB BKN045 BKN250 24/21 A3000=

Extra information for KMOB:More info

Metar Taf Metar & Taf Last 4 Metars F.Rules Stats Wind Profile Meteogram Temp Stats Airport Information Weather charts Add Link Nearby VenuesMetar ALERT Operation Metar Decoded Social comments

AIRNAV info for KMOB